createdAt,value
2022-08-22T00:02:12.908Z,100680.72
2022-08-22T00:03:12.822Z,100660.91
2022-08-22T00:04:44.698Z,100685.63
2022-08-22T00:07:14.640Z,100677.72
2022-08-22T00:09:53.860Z,100685.38
2022-08-22T00:12:29.411Z,100681.09
2022-08-22T00:15:05.960Z,100691.88
2022-08-22T00:17:38.552Z,100699.22
2022-08-22T00:20:35.846Z,100685.69
2022-08-22T00:23:27.770Z,100692.16
2022-08-22T00:26:21.018Z,100694.03
2022-08-22T00:29:00.798Z,100695.56
2022-08-22T00:31:43.511Z,100701.81
2022-08-22T00:34:22.881Z,100702.78
2022-08-22T00:37:08.183Z,100706.34
2022-08-22T00:39:58.484Z,100704.88
2022-08-22T00:42:55.074Z,100709.59
2022-08-22T00:45:48.091Z,100707.66
2022-08-22T00:48:48.484Z,100710.25
2022-08-22T00:51:45.343Z,100708.75
2022-08-22T00:54:40.034Z,100705.66
2022-08-22T00:57:18.572Z,100711.53
2022-08-22T01:00:00.045Z,100701.41
2022-08-22T01:02:27.263Z,100700.53
2022-08-22T01:05:05.843Z,100695.41
2022-08-22T01:08:16.034Z,100695.31
2022-08-22T01:10:56.198Z,100693.22
2022-08-22T01:13:47.658Z,100692.31
2022-08-22T01:16:48.437Z,100692.53
2022-08-22T01:19:46.919Z,100689.44
2022-08-22T01:22:51.162Z,100694.69
2022-08-22T01:25:42.956Z,100692.72
2022-08-22T01:28:31.111Z,100699.81
2022-08-22T01:31:10.419Z,100694.31
2022-08-22T01:34:14.595Z,100687.97
2022-08-22T01:37:04.458Z,100687.50
2022-08-22T01:40:03.268Z,100684.13
2022-08-22T01:42:41.840Z,100690.66
2022-08-22T01:45:14.658Z,100689.91
2022-08-22T01:48:00.592Z,100692.28
2022-08-22T01:50:39.657Z,100691.91
2022-08-22T01:53:24.630Z,100689.59
2022-08-22T01:56:03.426Z,100688.78
2022-08-22T01:58:33.289Z,100687.72
2022-08-22T02:01:17.875Z,100692.19
2022-08-22T02:04:02.483Z,100685.72
2022-08-22T02:06:52.684Z,100689.34
2022-08-22T02:09:53.502Z,100688.75
2022-08-22T02:12:32.394Z,100687.03
2022-08-22T02:15:17.098Z,100698.00
2022-08-22T02:18:05.753Z,100694.09
2022-08-22T02:20:57.263Z,100690.16
2022-08-22T02:23:33.075Z,100692.75
2022-08-22T02:26:02.898Z,100686.94
2022-08-22T02:29:07.854Z,100682.63
2022-08-22T02:31:53.400Z,100686.50
2022-08-22T02:34:41.238Z,100695.81
2022-08-22T02:37:34.046Z,100698.25
2022-08-22T02:40:08.047Z,100700.81
2022-08-22T02:42:46.916Z,100688.84
2022-08-22T02:45:39.049Z,100699.09
2022-08-22T02:48:40.408Z,100705.63
2022-08-22T02:51:22.031Z,100701.66
2022-08-22T02:54:08.963Z,100701.25
2022-08-22T02:56:44.874Z,100706.75
2022-08-22T02:59:27.036Z,100699.78
2022-08-22T03:01:55.773Z,100708.19
2022-08-22T03:04:43.789Z,100710.00
2022-08-22T03:07:14.382Z,100697.03
2022-08-22T03:10:03.640Z,100699.63
2022-08-22T03:12:38.428Z,100706.50
2022-08-22T03:15:20.355Z,100704.50
2022-08-22T03:18:03.999Z,100700.16
2022-08-22T03:20:42.283Z,100702.59
2022-08-22T03:23:40.705Z,100708.38
2022-08-22T03:26:22.586Z,100702.88
2022-08-22T03:28:59.321Z,100706.19
2022-08-22T03:31:28.740Z,100704.31
2022-08-22T03:34:25.133Z,100704.97
2022-08-22T03:37:06.678Z,100698.59
2022-08-22T03:39:56.433Z,100706.44
2022-08-22T03:42:23.217Z,100703.34
2022-08-22T03:45:13.015Z,100704.78
2022-08-22T03:48:18.002Z,100706.16
2022-08-22T03:51:03.020Z,100702.94
2022-08-22T03:54:05.518Z,100709.94
2022-08-22T03:56:58.952Z,100708.56
2022-08-22T03:59:42.801Z,100705.84
2022-08-22T04:02:42.903Z,100714.25
2022-08-22T04:05:32.250Z,100709.78
2022-08-22T04:08:14.935Z,100713.75
2022-08-22T04:11:19.048Z,100713.91
2022-08-22T04:14:10.504Z,100717.00
2022-08-22T04:17:07.712Z,100719.91
2022-08-22T04:19:58.464Z,100719.91
2022-08-22T04:22:39.736Z,100712.31
2022-08-22T04:25:16.928Z,100719.16
2022-08-22T04:27:55.936Z,100709.50
2022-08-22T04:30:38.319Z,100713.59
2022-08-22T04:33:28.445Z,100719.41
2022-08-22T04:36:02.107Z,100721.75
2022-08-22T04:39:18.501Z,100728.78
2022-08-22T04:42:31.220Z,100727.16
2022-08-22T04:45:09.591Z,100741.28
2022-08-22T04:47:47.139Z,100733.69
2022-08-22T04:50:42.900Z,100735.31
2022-08-22T04:53:27.451Z,100733.84
2022-08-22T04:55:54.115Z,100741.59
2022-08-22T04:58:32.630Z,100732.88
2022-08-22T05:01:11.226Z,100735.75
2022-08-22T05:03:45.044Z,100743.47
2022-08-22T05:06:15.730Z,100741.41
2022-08-22T05:08:45.882Z,100734.72
2022-08-22T05:11:19.439Z,100742.31
2022-08-22T05:14:13.769Z,100754.34
2022-08-22T05:16:44.110Z,100756.31
2022-08-22T05:19:27.127Z,100760.75
2022-08-22T05:21:57.691Z,100764.75
2022-08-22T05:24:32.064Z,100761.47
2022-08-22T05:27:09.705Z,100756.41
2022-08-22T05:29:40.326Z,100750.84
2022-08-22T05:32:18.489Z,100758.69
2022-08-22T05:34:46.726Z,100754.59
2022-08-22T05:37:45.871Z,100758.69
2022-08-22T05:40:22.558Z,100759.06
2022-08-22T05:42:49.432Z,100754.97
2022-08-22T05:45:18.782Z,100768.84
2022-08-22T05:47:50.713Z,100753.75
2022-08-22T05:50:24.089Z,100763.63
2022-08-22T05:53:17.510Z,100756.03
2022-08-22T05:56:03.930Z,100765.50
2022-08-22T05:58:57.750Z,100766.03
2022-08-22T06:02:06.148Z,100769.25
2022-08-22T06:04:43.359Z,100773.59
2022-08-22T06:07:20.268Z,100770.47
2022-08-22T06:09:47.019Z,100766.06
2022-08-22T06:12:22.798Z,100771.66
2022-08-22T06:15:11.846Z,100767.31
2022-08-22T06:17:45.647Z,100767.94
2022-08-22T06:20:21.102Z,100769.25
2022-08-22T06:22:53.689Z,100780.81
2022-08-22T06:25:32.563Z,100778.47
2022-08-22T06:28:04.403Z,100775.91
2022-08-22T06:30:33.276Z,100781.03
2022-08-22T06:33:08.401Z,100782.53
2022-08-22T06:36:08.042Z,100773.03
2022-08-22T06:39:12.450Z,100788.66
2022-08-22T06:41:53.804Z,100785.41
2022-08-22T06:44:26.111Z,100780.91
2022-08-22T06:46:57.556Z,100773.56
2022-08-22T06:49:26.968Z,100778.38
2022-08-22T06:52:00.102Z,100781.84
2022-08-22T06:54:34.259Z,100776.91
2022-08-22T06:57:04.489Z,100775.97
2022-08-22T06:59:35.419Z,100781.13
2022-08-22T07:02:11.015Z,100778.69
2022-08-22T07:04:38.280Z,100779.28
2022-08-22T07:07:06.051Z,100770.16
2022-08-22T07:09:37.337Z,100769.06
2022-08-22T07:12:21.515Z,100777.38
2022-08-22T07:14:51.381Z,100776.63
2022-08-22T07:17:25.048Z,100779.34
2022-08-22T07:19:59.748Z,100767.09
2022-08-22T07:22:33.139Z,100776.16
2022-08-22T07:25:15.423Z,100777.09
2022-08-22T07:28:36.936Z,100776.31
2022-08-22T07:31:34.535Z,100778.78
2022-08-22T07:34:42.521Z,100777.19
2022-08-22T07:37:36.696Z,100782.09
2022-08-22T07:40:13.013Z,100781.88
2022-08-22T07:42:52.088Z,100782.09
2022-08-22T07:45:49.579Z,100781.97
2022-08-22T07:48:25.517Z,100779.75
2022-08-22T07:51:28.546Z,100786.72
2022-08-22T07:54:00.954Z,100791.56
2022-08-22T07:56:34.747Z,100783.72
2022-08-22T07:59:14.672Z,100779.63
2022-08-22T08:01:48.404Z,100780.91
2022-08-22T08:04:19.595Z,100775.06
2022-08-22T08:07:11.268Z,100781.91
2022-08-22T08:09:42.944Z,100778.53
2022-08-22T08:12:11.857Z,100778.94
2022-08-22T08:14:42.635Z,100774.31
2022-08-22T08:17:17.559Z,100782.31
2022-08-22T08:19:47.300Z,100785.19
2022-08-22T08:22:22.712Z,100790.91
2022-08-22T08:24:51.142Z,100778.69
2022-08-22T08:27:40.839Z,100781.81
2022-08-22T08:30:18.467Z,100782.66
2022-08-22T08:32:57.622Z,100782.09
2022-08-22T08:36:02.043Z,100790.53
2022-08-22T08:38:36.631Z,100781.84
2022-08-22T08:41:25.144Z,100779.34
2022-08-22T08:44:17.010Z,100772.69
2022-08-22T08:47:07.424Z,100768.94
2022-08-22T08:50:06.543Z,100771.81
2022-08-22T08:52:58.646Z,100773.91
2022-08-22T08:55:25.509Z,100760.63
2022-08-22T08:58:06.554Z,100767.59
2022-08-22T09:00:43.006Z,100765.88
2022-08-22T09:03:24.049Z,100759.00
2022-08-22T09:06:34.528Z,100764.28
2022-08-22T09:09:40.094Z,100768.75
2022-08-22T09:12:12.833Z,100768.38
2022-08-22T09:14:57.582Z,100770.94
2022-08-22T09:17:42.687Z,100761.47
2022-08-22T09:20:30.598Z,100760.50
2022-08-22T09:23:31.808Z,100757.84
2022-08-22T09:26:19.233Z,100755.75
2022-08-22T09:29:10.902Z,100769.16
2022-08-22T09:32:13.042Z,100779.47
2022-08-22T09:35:08.132Z,100773.53
2022-08-22T09:37:39.307Z,100770.78
2022-08-22T09:40:18.863Z,100760.47
2022-08-22T09:43:11.693Z,100772.09
2022-08-22T09:46:13.233Z,100761.44
2022-08-22T09:48:52.963Z,100758.81
2022-08-22T09:51:34.479Z,100766.91
2022-08-22T09:54:11.596Z,100767.34
2022-08-22T09:57:06.224Z,100754.69
2022-08-22T09:59:42.671Z,100757.41
2022-08-22T10:02:36.108Z,100759.38
2022-08-22T10:05:03.959Z,100755.84
2022-08-22T10:07:51.536Z,100759.72
2022-08-22T10:10:32.228Z,100750.66
2022-08-22T10:13:19.128Z,100754.75
2022-08-22T10:16:02.062Z,100754.47
2022-08-22T10:18:52.810Z,100751.31
2022-08-22T10:21:36.144Z,100749.69
2022-08-22T10:24:25.708Z,100740.56
2022-08-22T10:27:02.262Z,100744.28
2022-08-22T10:29:38.344Z,100747.00
2022-08-22T10:32:33.499Z,100735.56
2022-08-22T10:35:19.197Z,100736.75
2022-08-22T10:38:12.414Z,100737.66
2022-08-22T10:40:56.984Z,100736.47
2022-08-22T10:43:56.428Z,100727.19
2022-08-22T10:46:42.547Z,100727.41
2022-08-22T10:49:33.770Z,100724.38
2022-08-22T10:52:15.841Z,100726.09
2022-08-22T10:55:17.506Z,100726.69
2022-08-22T10:57:57.531Z,100726.09
2022-08-22T11:00:27.032Z,100719.72
2022-08-22T11:03:29.292Z,100713.91
2022-08-22T11:06:05.032Z,100719.41
2022-08-22T11:08:50.469Z,100718.03
2022-08-22T11:11:20.234Z,100704.03
2022-08-22T11:14:25.405Z,100704.13
2022-08-22T11:17:11.973Z,100702.25
2022-08-22T11:19:58.068Z,100704.13
2022-08-22T11:22:40.491Z,100696.19
2022-08-22T11:25:13.812Z,100697.56
2022-08-22T11:27:46.653Z,100702.28
2022-08-22T11:30:24.100Z,100696.59
2022-08-22T11:33:00.124Z,100698.16
2022-08-22T11:35:42.773Z,100700.53
2022-08-22T11:38:25.043Z,100696.16
2022-08-22T11:41:06.477Z,100706.31
2022-08-22T11:43:59.522Z,100701.38
2022-08-22T11:46:58.086Z,100699.78
2022-08-22T11:49:57.543Z,100689.53
2022-08-22T11:52:34.733Z,100696.44
2022-08-22T11:55:38.314Z,100690.31
2022-08-22T11:58:30.362Z,100683.94
2022-08-22T12:01:04.749Z,100685.50
2022-08-22T12:03:55.840Z,100692.97
2022-08-22T12:06:41.830Z,100687.66
2022-08-22T12:09:27.894Z,100689.59
2022-08-22T12:12:05.606Z,100687.84
2022-08-22T12:14:43.848Z,100682.13
2022-08-22T12:17:55.973Z,100684.63
2022-08-22T12:20:54.753Z,100675.38
2022-08-22T12:23:49.136Z,100669.91
2022-08-22T12:26:46.485Z,100672.03
2022-08-22T12:29:52.790Z,100663.22
2022-08-22T12:33:16.376Z,100669.09
2022-08-22T12:36:03.063Z,100668.75
2022-08-22T12:38:50.066Z,100669.34
2022-08-22T12:41:48.304Z,100664.28
2022-08-22T12:44:33.345Z,100661.00
2022-08-22T12:46:59.986Z,100665.34
2022-08-22T12:50:08.326Z,100662.56
2022-08-22T12:52:41.204Z,100656.97
2022-08-22T12:55:27.829Z,100660.44
2022-08-22T12:58:01.039Z,100650.44
2022-08-22T13:00:36.856Z,100646.56
2022-08-22T13:03:09.691Z,100644.03
2022-08-22T13:05:40.508Z,100645.00
2022-08-22T13:08:21.887Z,100635.06
2022-08-22T13:11:01.308Z,100640.50
2022-08-22T13:13:43.566Z,100638.56
2022-08-22T13:16:25.602Z,100644.22
2022-08-22T13:19:13.504Z,100643.72
2022-08-22T13:21:47.123Z,100642.00
2022-08-22T13:24:38.190Z,100649.13
2022-08-22T13:27:21.643Z,100644.56
2022-08-22T13:29:55.537Z,100655.38
2022-08-22T13:32:28.536Z,100642.19
2022-08-22T13:34:58.059Z,100650.22
2022-08-22T13:37:31.578Z,100656.28
2022-08-22T13:40:02.490Z,100649.88
2022-08-22T13:42:31.522Z,100653.75
2022-08-22T13:45:04.984Z,100646.34
2022-08-22T13:47:35.912Z,100644.06
2022-08-22T13:50:19.131Z,100646.34
2022-08-22T13:53:11.955Z,100652.75
2022-08-22T13:55:49.204Z,100655.06
2022-08-22T13:58:34.694Z,100649.97
2022-08-22T14:01:25.265Z,100644.66
2022-08-22T14:03:57.640Z,100645.25
2022-08-22T14:06:51.308Z,100642.47
2022-08-22T14:09:56.049Z,100629.63
2022-08-22T14:12:50.172Z,100637.03
2022-08-22T14:15:45.088Z,100633.69
2022-08-22T14:18:19.902Z,100636.44
2022-08-22T14:20:48.312Z,100637.19
2022-08-22T14:23:27.193Z,100637.53
2022-08-22T14:25:55.570Z,100627.19
2022-08-22T14:28:27.598Z,100628.69
2022-08-22T14:31:13.271Z,100627.31
2022-08-22T14:33:48.951Z,100631.19
2022-08-22T14:36:38.698Z,100620.09
2022-08-22T14:39:12.025Z,100625.75
2022-08-22T14:41:52.684Z,100623.47
2022-08-22T14:44:36.205Z,100627.63
2022-08-22T14:47:32.188Z,100627.78
2022-08-22T14:49:58.026Z,100631.41
2022-08-22T14:52:42.752Z,100625.91
2022-08-22T14:55:16.563Z,100627.84
2022-08-22T14:57:49.200Z,100618.09
2022-08-22T15:00:28.601Z,100616.41
2022-08-22T15:03:09.005Z,100616.19
2022-08-22T15:05:50.250Z,100616.38
2022-08-22T15:08:30.946Z,100621.06
2022-08-22T15:11:22.389Z,100622.41
2022-08-22T15:13:58.241Z,100619.88
2022-08-22T15:16:37.033Z,100614.59
2022-08-22T15:19:22.970Z,100613.94
2022-08-22T15:21:50.343Z,100614.97
2022-08-22T15:24:18.703Z,100609.53
2022-08-22T15:26:55.401Z,100605.06
2022-08-22T15:29:33.696Z,100613.72
2022-08-22T15:32:02.414Z,100613.84
2022-08-22T15:34:35.808Z,100606.38
2022-08-22T15:37:17.887Z,100601.09
2022-08-22T15:40:11.918Z,100596.44
2022-08-22T15:42:49.008Z,100597.13
2022-08-22T15:45:38.424Z,100602.91
2022-08-22T15:48:11.482Z,100604.06
2022-08-22T15:50:56.602Z,100601.50
2022-08-22T15:54:05.186Z,100603.63
2022-08-22T15:57:12.953Z,100599.66
2022-08-22T15:59:54.267Z,100599.44
2022-08-22T16:02:35.187Z,100597.81
2022-08-22T16:05:08.063Z,100598.34
2022-08-22T16:07:37.475Z,100588.88
2022-08-22T16:10:12.673Z,100590.19
2022-08-22T16:12:50.695Z,100596.22
2022-08-22T16:15:52.693Z,100585.84
2022-08-22T16:18:39.146Z,100586.31
2022-08-22T16:21:38.160Z,100589.19
2022-08-22T16:24:04.789Z,100597.09
2022-08-22T16:26:31.368Z,100591.56
2022-08-22T16:29:13.467Z,100584.50
2022-08-22T16:31:44.153Z,100589.41
2022-08-22T16:34:17.045Z,100588.06
2022-08-22T16:36:49.631Z,100588.53
2022-08-22T16:39:41.518Z,100586.97
2022-08-22T16:42:23.187Z,100587.88
2022-08-22T16:45:11.644Z,100595.22
2022-08-22T16:47:56.786Z,100596.34
2022-08-22T16:50:37.819Z,100589.84
2022-08-22T16:53:10.045Z,100608.00
2022-08-22T16:55:43.852Z,100602.66
2022-08-22T16:58:35.823Z,100605.19
2022-08-22T17:01:37.897Z,100601.66
2022-08-22T17:04:08.112Z,100608.28
2022-08-22T17:06:35.724Z,100603.44
2022-08-22T17:09:36.463Z,100609.03
2022-08-22T17:12:21.591Z,100603.66
2022-08-22T17:15:13.210Z,100612.84
2022-08-22T17:18:15.421Z,100604.88
2022-08-22T17:21:05.679Z,100610.22
2022-08-22T17:23:35.308Z,100604.28
2022-08-22T17:26:49.691Z,100609.22
2022-08-22T17:29:39.294Z,100608.06
2022-08-22T17:32:43.508Z,100612.47
2022-08-22T17:36:05.829Z,100612.56
2022-08-22T17:38:41.726Z,100619.00
2022-08-22T17:41:45.925Z,100613.25
2022-08-22T17:44:23.833Z,100622.97
2022-08-22T17:47:20.093Z,100624.78
2022-08-22T17:50:01.941Z,100622.81
2022-08-22T17:52:44.160Z,100630.94
2022-08-22T17:55:23.356Z,100633.13
2022-08-22T17:58:00.122Z,100631.59
2022-08-22T18:00:39.992Z,100630.91
2022-08-22T18:03:14.275Z,100637.63
2022-08-22T18:05:50.612Z,100640.69
2022-08-22T18:09:13.483Z,100641.88
2022-08-22T18:11:40.232Z,100639.75
2022-08-22T18:14:33.389Z,100660.06
2022-08-22T18:17:01.157Z,100653.56
2022-08-22T18:19:36.828Z,100661.59
2022-08-22T18:22:40.884Z,100661.50
2022-08-22T18:25:19.792Z,100658.03
2022-08-22T18:27:51.647Z,100663.59
2022-08-22T18:30:22.143Z,100665.59
2022-08-22T18:32:56.373Z,100665.16
2022-08-22T18:35:31.366Z,100663.97
2022-08-22T18:38:20.002Z,100666.88
2022-08-22T18:40:54.369Z,100676.84
2022-08-22T18:43:38.368Z,100666.41
2022-08-22T18:46:43.493Z,100683.59
2022-08-22T18:49:22.068Z,100678.72
2022-08-22T18:52:10.811Z,100680.81
2022-08-22T18:54:48.063Z,100689.41
2022-08-22T18:57:38.796Z,100685.25
2022-08-22T19:00:39.018Z,100691.59
2022-08-22T19:03:23.941Z,100694.50
2022-08-22T19:06:19.320Z,100694.59
2022-08-22T19:09:28.296Z,100699.22
2022-08-22T19:12:03.321Z,100696.19
2022-08-22T19:15:03.911Z,100693.19
2022-08-22T19:17:55.838Z,100696.25
2022-08-22T19:20:48.312Z,100692.50
2022-08-22T19:23:33.059Z,100693.19
2022-08-22T19:26:28.126Z,100699.38
2022-08-22T19:29:16.133Z,100701.13
2022-08-22T19:31:44.322Z,100712.78
2022-08-22T19:34:19.075Z,100712.19
2022-08-22T19:37:06.352Z,100715.94
2022-08-22T19:39:42.325Z,100720.72
2022-08-22T19:42:18.205Z,100724.56
2022-08-22T19:44:53.905Z,100727.81
2022-08-22T19:47:29.650Z,100727.25
2022-08-22T19:50:01.950Z,100732.13
2022-08-22T19:52:38.558Z,100728.66
2022-08-22T19:55:14.507Z,100721.31
2022-08-22T19:57:57.206Z,100723.56
2022-08-22T20:00:53.461Z,100734.06
2022-08-22T20:03:57.932Z,100730.66
2022-08-22T20:06:47.803Z,100733.78
2022-08-22T20:09:23.523Z,100730.25
2022-08-22T20:12:19.297Z,100728.13
2022-08-22T20:14:47.424Z,100732.53
2022-08-22T20:17:26.449Z,100740.34
2022-08-22T20:20:17.610Z,100734.38
2022-08-22T20:22:54.863Z,100738.63
2022-08-22T20:25:43.006Z,100742.19
2022-08-22T20:28:47.156Z,100737.50
2022-08-22T20:31:24.288Z,100730.13
2022-08-22T20:34:25.412Z,100739.78
2022-08-22T20:37:09.869Z,100747.44
2022-08-22T20:39:58.790Z,100744.31
2022-08-22T20:42:30.758Z,100745.63
2022-08-22T20:44:59.040Z,100748.56
2022-08-22T20:47:40.678Z,100752.34
2022-08-22T20:50:12.098Z,100757.94
2022-08-22T20:52:51.814Z,100755.88
2022-08-22T20:55:27.327Z,100757.88
2022-08-22T20:58:04.289Z,100759.09
2022-08-22T21:00:40.070Z,100761.06
2022-08-22T21:03:32.575Z,100758.97
2022-08-22T21:06:14.548Z,100759.69
2022-08-22T21:08:43.256Z,100765.25
2022-08-22T21:11:28.592Z,100759.53
2022-08-22T21:13:55.756Z,100765.72
2022-08-22T21:16:33.064Z,100768.56
2022-08-22T21:19:01.714Z,100767.28
2022-08-22T21:21:34.452Z,100765.19
2022-08-22T21:24:05.461Z,100763.25
2022-08-22T21:26:39.207Z,100770.94
2022-08-22T21:29:14.879Z,100773.97
2022-08-22T21:31:44.529Z,100778.44
2022-08-22T21:34:24.987Z,100779.28
2022-08-22T21:36:54.876Z,100772.31
2022-08-22T21:39:27.175Z,100779.63
2022-08-22T21:42:29.331Z,100778.25
2022-08-22T21:45:02.795Z,100776.59
2022-08-22T21:47:30.514Z,100775.75
2022-08-22T21:50:09.863Z,100784.19
2022-08-22T21:52:44.134Z,100784.53
2022-08-22T21:55:28.906Z,100784.19
2022-08-22T21:58:05.315Z,100786.59
2022-08-22T22:00:48.586Z,100782.22
2022-08-22T22:05:43.411Z,100787.63
2022-08-22T22:08:13.348Z,100790.44
2022-08-22T22:10:42.370Z,100787.88
2022-08-22T22:13:09.438Z,100780.44
2022-08-22T22:15:41.347Z,100776.13
2022-08-22T22:18:09.924Z,100784.81
2022-08-22T22:20:36.938Z,100790.28
2022-08-22T22:23:04.252Z,100786.06
2022-08-22T22:25:40.854Z,100786.63
2022-08-22T22:28:21.450Z,100790.53
2022-08-22T22:30:53.409Z,100779.34
2022-08-22T22:33:23.056Z,100791.03
2022-08-22T22:35:51.244Z,100781.88
2022-08-22T22:38:23.737Z,100792.25
2022-08-22T22:40:50.933Z,100785.63
2022-08-22T22:43:17.621Z,100785.44
2022-08-22T22:45:44.420Z,100785.66
2022-08-22T22:48:11.102Z,100786.91
2022-08-22T22:50:44.202Z,100786.41
2022-08-22T22:53:12.054Z,100783.34
2022-08-22T22:55:59.741Z,100788.84
2022-08-22T22:58:27.924Z,100786.66
2022-08-22T23:00:55.717Z,100786.13
2022-08-22T23:03:22.770Z,100787.25
2022-08-22T23:05:49.403Z,100785.28
2022-08-22T23:08:16.152Z,100787.38
2022-08-22T23:10:42.823Z,100792.13
2022-08-22T23:13:09.546Z,100783.34
2022-08-22T23:15:37.135Z,100787.56
2022-08-22T23:18:03.927Z,100794.22
2022-08-22T23:20:30.547Z,100790.13
2022-08-22T23:22:57.402Z,100784.81
2022-08-22T23:25:24.030Z,100795.63
2022-08-22T23:27:58.722Z,100797.22
2022-08-22T23:30:25.512Z,100789.72
2022-08-22T23:32:52.546Z,100791.22
2022-08-22T23:35:19.424Z,100792.56
2022-08-22T23:37:46.097Z,100790.00
2022-08-22T23:40:12.981Z,100793.38
2022-08-22T23:42:39.781Z,100794.94
2022-08-22T23:45:06.780Z,100786.53
2022-08-22T23:47:33.423Z,100789.75
2022-08-22T23:50:02.966Z,100798.34
2022-08-22T23:52:33.230Z,100799.66
2022-08-22T23:54:59.855Z,100798.28
2022-08-22T23:57:27.647Z,100805.88
2022-08-22T23:59:57.731Z,100796.06
